Bay Acres, Arizona
Current Conditions -  °F | °C
As of 5:56 PM on Monday 20 Oct 2014 (Local Time) from KDUG Reporting Station
Broken Clouds Broken Clouds  
Wind Chill: 65°   Ceiling: 11000
Heat Index: 65°   Visibility: 10mi
Dew Point: 47°   Wind: 9mph
Humidity: 52%   Direction: 110°ESE
Pressure: 29.99"   Gusts: NA
Location:  31.4518°N, 109.329°W
Report Text: KDUG 210056Z AUTO 11008KT 10SM BKN110 18/08 A2999 RMK AO2 SLP116 T01830083
Loading
Personal Weather Stations






























Interactive Weather Map
Tropical Storm Tracking
New forecast layout! Learn more

10-Day Weather Forecast

Advertisements
Track Severe Weather on mobile